sensor_id;sensor_type;location;lat;lon;timestamp;P1;durP1;ratioP1;P2;durP2;ratioP2
19679;SDS011;9989;48.962;9.182;2023-05-10T00:01:07;7.90;;;1.80;;
19679;SDS011;9989;48.962;9.182;2023-05-10T00:03:33;2.53;;;1.40;;
19679;SDS011;9989;48.962;9.182;2023-05-10T00:05:58;1.97;;;1.10;;
19679;SDS011;9989;48.962;9.182;2023-05-10T00:08:24;4.20;;;1.37;;
19679;SDS011;9989;48.962;9.182;2023-05-10T00:10:50;3.57;;;1.40;;
19679;SDS011;9989;48.962;9.182;2023-05-10T00:13:17;2.03;;;1.43;;
19679;SDS011;9989;48.962;9.182;2023-05-10T00:15:42;8.10;;;1.50;;
19679;SDS011;9989;48.962;9.182;2023-05-10T00:18:08;2.70;;;1.47;;
19679;SDS011;9989;48.962;9.182;2023-05-10T00:20:34;1.70;;;1.10;;
19679;SDS011;9989;48.962;9.182;2023-05-10T00:22:59;2.07;;;1.00;;
19679;SDS011;9989;48.962;9.182;2023-05-10T00:25:25;1.63;;;1.07;;
19679;SDS011;9989;48.962;9.182;2023-05-10T00:27:51;1.77;;;1.10;;
19679;SDS011;9989;48.962;9.182;2023-05-10T00:30:16;2.07;;;1.20;;
19679;SDS011;9989;48.962;9.182;2023-05-10T00:32:43;1.73;;;1.10;;
19679;SDS011;9989;48.962;9.182;2023-05-10T00:35:08;1.97;;;1.00;;
19679;SDS011;9989;48.962;9.182;2023-05-10T00:37:34;2.20;;;0.90;;
19679;SDS011;9989;48.962;9.182;2023-05-10T00:40:00;1.67;;;1.00;;
19679;SDS011;9989;48.962;9.182;2023-05-10T00:42:25;2.40;;;1.00;;
19679;SDS011;9989;48.962;9.182;2023-05-10T00:44:51;2.83;;;0.93;;
19679;SDS011;9989;48.962;9.182;2023-05-10T00:47:17;3.00;;;1.00;;
19679;SDS011;9989;48.962;9.182;2023-05-10T00:49:43;2.37;;;1.00;;
19679;SDS011;9989;48.962;9.182;2023-05-10T00:52:09;1.60;;;1.00;;
19679;SDS011;9989;48.962;9.182;2023-05-10T00:54:35;1.73;;;0.80;;
19679;SDS011;9989;48.962;9.182;2023-05-10T00:57:03;1.63;;;1.00;;
19679;SDS011;9989;48.962;9.182;2023-05-10T00:59:29;1.17;;;0.83;;
19679;SDS011;9989;48.962;9.182;2023-05-10T01:01:55;2.60;;;1.30;;
19679;SDS011;9989;48.962;9.182;2023-05-10T01:04:21;2.83;;;1.20;;
19679;SDS011;9989;48.962;9.182;2023-05-10T01:06:50;2.00;;;1.10;;
19679;SDS011;9989;48.962;9.182;2023-05-10T01:09:17;2.57;;;1.37;;
19679;SDS011;9989;48.962;9.182;2023-05-10T01:11:43;3.47;;;1.20;;
19679;SDS011;9989;48.962;9.182;2023-05-10T01:14:10;2.10;;;1.30;;
19679;SDS011;9989;48.962;9.182;2023-05-10T01:16:36;1.97;;;1.20;;
19679;SDS011;9989;48.962;9.182;2023-05-10T01:36:16;4.43;;;1.93;;
19679;SDS011;9989;48.962;9.182;2023-05-10T01:41:51;3.90;;;1.80;;
19679;SDS011;9989;48.962;9.182;2023-05-10T01:44:29;3.03;;;1.47;;
19679;SDS011;9989;48.962;9.182;2023-05-10T01:47:07;3.23;;;1.50;;
19679;SDS011;9989;48.962;9.182;2023-05-10T01:49:43;3.80;;;1.70;;
19679;SDS011;9989;48.962;9.182;2023-05-10T01:52:15;3.40;;;1.77;;
19679;SDS011;9989;48.962;9.182;2023-05-10T01:54:52;3.70;;;1.70;;
19679;SDS011;9989;48.962;9.182;2023-05-10T01:57:20;3.43;;;1.50;;
19679;SDS011;9989;48.962;9.182;2023-05-10T01:59:50;3.83;;;1.83;;
19679;SDS011;9989;48.962;9.182;2023-05-10T02:02:18;4.90;;;1.80;;
19679;SDS011;9989;48.962;9.182;2023-05-10T02:04:46;4.20;;;1.40;;
19679;SDS011;9989;48.962;9.182;2023-05-10T02:07:14;3.43;;;1.70;;
19679;SDS011;9989;48.962;9.182;2023-05-10T02:09:42;3.73;;;1.60;;
19679;SDS011;9989;48.962;9.182;2023-05-10T02:12:12;4.87;;;1.67;;
19679;SDS011;9989;48.962;9.182;2023-05-10T02:14:39;3.40;;;1.60;;
19679;SDS011;9989;48.962;9.182;2023-05-10T02:17:06;3.57;;;1.70;;
19679;SDS011;9989;48.962;9.182;2023-05-10T02:19:34;3.73;;;1.70;;
19679;SDS011;9989;48.962;9.182;2023-05-10T02:22:02;3.13;;;1.57;;
19679;SDS011;9989;48.962;9.182;2023-05-10T02:24:28;3.67;;;1.73;;
19679;SDS011;9989;48.962;9.182;2023-05-10T02:26:55;4.97;;;1.70;;
19679;SDS011;9989;48.962;9.182;2023-05-10T02:29:22;4.13;;;1.90;;
19679;SDS011;9989;48.962;9.182;2023-05-10T02:31:51;4.27;;;2.00;;
19679;SDS011;9989;48.962;9.182;2023-05-10T02:34:19;3.93;;;2.03;;
19679;SDS011;9989;48.962;9.182;2023-05-10T02:36:47;4.50;;;2.00;;
19679;SDS011;9989;48.962;9.182;2023-05-10T02:39:14;5.93;;;2.17;;
19679;SDS011;9989;48.962;9.182;2023-05-10T02:41:41;4.13;;;2.33;;
19679;SDS011;9989;48.962;9.182;2023-05-10T02:44:08;3.70;;;1.90;;
19679;SDS011;9989;48.962;9.182;2023-05-10T02:46:35;4.80;;;2.20;;
19679;SDS011;9989;48.962;9.182;2023-05-10T02:49:01;4.47;;;1.90;;
19679;SDS011;9989;48.962;9.182;2023-05-10T02:51:28;4.17;;;2.00;;
19679;SDS011;9989;48.962;9.182;2023-05-10T02:53:57;3.77;;;1.80;;
19679;SDS011;9989;48.962;9.182;2023-05-10T02:56:31;6.07;;;2.40;;
19679;SDS011;9989;48.962;9.182;2023-05-10T02:58:59;3.27;;;1.90;;
19679;SDS011;9989;48.962;9.182;2023-05-10T03:01:25;6.33;;;2.37;;
19679;SDS011;9989;48.962;9.182;2023-05-10T03:03:50;3.97;;;2.13;;
19679;SDS011;9989;48.962;9.182;2023-05-10T03:06:16;6.40;;;2.50;;
19679;SDS011;9989;48.962;9.182;2023-05-10T03:08:42;3.73;;;2.10;;
19679;SDS011;9989;48.962;9.182;2023-05-10T03:16:27;3.77;;;2.03;;
19679;SDS011;9989;48.962;9.182;2023-05-10T03:19:06;5.97;;;2.30;;
19679;SDS011;9989;48.962;9.182;2023-05-10T03:21:38;4.17;;;2.07;;
19679;SDS011;9989;48.962;9.182;2023-05-10T03:24:08;3.83;;;2.13;;
19679;SDS011;9989;48.962;9.182;2023-05-10T03:26:37;4.10;;;2.10;;
19679;SDS011;9989;48.962;9.182;2023-05-10T03:29:05;5.33;;;2.50;;
19679;SDS011;9989;48.962;9.182;2023-05-10T03:31:32;5.13;;;2.50;;
19679;SDS011;9989;48.962;9.182;2023-05-10T03:33:58;8.60;;;2.40;;
19679;SDS011;9989;48.962;9.182;2023-05-10T03:36:23;6.33;;;2.40;;
19679;SDS011;9989;48.962;9.182;2023-05-10T03:38:49;5.57;;;2.57;;
19679;SDS011;9989;48.962;9.182;2023-05-10T03:41:15;5.73;;;2.83;;
19679;SDS011;9989;48.962;9.182;2023-05-10T03:43:41;5.57;;;2.90;;
19679;SDS011;9989;48.962;9.182;2023-05-10T03:46:06;6.17;;;3.37;;
19679;SDS011;9989;48.962;9.182;2023-05-10T03:48:32;5.50;;;2.80;;
19679;SDS011;9989;48.962;9.182;2023-05-10T03:50:58;5.60;;;2.80;;
19679;SDS011;9989;48.962;9.182;2023-05-10T03:53:24;6.80;;;3.10;;
19679;SDS011;9989;48.962;9.182;2023-05-10T03:55:50;6.00;;;2.87;;
19679;SDS011;9989;48.962;9.182;2023-05-10T03:58:15;6.30;;;3.20;;
19679;SDS011;9989;48.962;9.182;2023-05-10T04:00:41;6.93;;;3.20;;
19679;SDS011;9989;48.962;9.182;2023-05-10T04:03:10;6.57;;;3.30;;
19679;SDS011;9989;48.962;9.182;2023-05-10T04:05:36;7.17;;;3.30;;
19679;SDS011;9989;48.962;9.182;2023-05-10T04:08:02;6.00;;;2.90;;
19679;SDS011;9989;48.962;9.182;2023-05-10T04:10:28;6.30;;;3.13;;
19679;SDS011;9989;48.962;9.182;2023-05-10T04:12:54;6.37;;;3.27;;
19679;SDS011;9989;48.962;9.182;2023-05-10T04:15:20;6.47;;;3.30;;
19679;SDS011;9989;48.962;9.182;2023-05-10T04:17:46;6.00;;;3.10;;
19679;SDS011;9989;48.962;9.182;2023-05-10T04:20:12;6.90;;;3.37;;
19679;SDS011;9989;48.962;9.182;2023-05-10T04:22:38;6.87;;;3.20;;
19679;SDS011;9989;48.962;9.182;2023-05-10T04:25:04;6.90;;;3.00;;
19679;SDS011;9989;48.962;9.182;2023-05-10T04:27:30;6.60;;;3.30;;
19679;SDS011;9989;48.962;9.182;2023-05-10T04:29:56;6.60;;;3.20;;
19679;SDS011;9989;48.962;9.182;2023-05-10T04:32:22;6.40;;;3.23;;
19679;SDS011;9989;48.962;9.182;2023-05-10T04:34:47;6.90;;;3.60;;
19679;SDS011;9989;48.962;9.182;2023-05-10T04:37:13;7.70;;;3.53;;
19679;SDS011;9989;48.962;9.182;2023-05-10T04:39:39;6.57;;;3.17;;
19679;SDS011;9989;48.962;9.182;2023-05-10T04:42:05;7.00;;;3.50;;
19679;SDS011;9989;48.962;9.182;2023-05-10T04:44:31;8.73;;;3.40;;
19679;SDS011;9989;48.962;9.182;2023-05-10T04:46:57;6.83;;;2.80;;
19679;SDS011;9989;48.962;9.182;2023-05-10T04:49:22;7.50;;;3.60;;
19679;SDS011;9989;48.962;9.182;2023-05-10T04:51:48;8.07;;;3.30;;
19679;SDS011;9989;48.962;9.182;2023-05-10T04:54:14;7.77;;;3.57;;
19679;SDS011;9989;48.962;9.182;2023-05-10T04:56:39;7.83;;;3.50;;
19679;SDS011;9989;48.962;9.182;2023-05-10T04:59:06;6.80;;;3.47;;
19679;SDS011;9989;48.962;9.182;2023-05-10T05:01:32;7.30;;;3.20;;
19679;SDS011;9989;48.962;9.182;2023-05-10T05:03:58;6.07;;;3.10;;
19679;SDS011;9989;48.962;9.182;2023-05-10T05:06:24;6.80;;;3.47;;
19679;SDS011;9989;48.962;9.182;2023-05-10T05:08:50;7.47;;;3.07;;
19679;SDS011;9989;48.962;9.182;2023-05-10T05:11:16;6.83;;;3.13;;
19679;SDS011;9989;48.962;9.182;2023-05-10T05:13:42;6.70;;;3.20;;
19679;SDS011;9989;48.962;9.182;2023-05-10T05:16:08;6.03;;;3.27;;
19679;SDS011;9989;48.962;9.182;2023-05-10T05:18:34;8.07;;;3.37;;
19679;SDS011;9989;48.962;9.182;2023-05-10T05:20:59;6.03;;;2.93;;
19679;SDS011;9989;48.962;9.182;2023-05-10T05:23:26;6.87;;;3.37;;
19679;SDS011;9989;48.962;9.182;2023-05-10T05:25:52;9.83;;;3.87;;
19679;SDS011;9989;48.962;9.182;2023-05-10T05:28:21;6.50;;;3.10;;
19679;SDS011;9989;48.962;9.182;2023-05-10T05:30:46;7.77;;;3.10;;
19679;SDS011;9989;48.962;9.182;2023-05-10T05:33:15;8.43;;;3.33;;
19679;SDS011;9989;48.962;9.182;2023-05-10T05:35:41;6.23;;;3.23;;
19679;SDS011;9989;48.962;9.182;2023-05-10T05:38:09;7.03;;;3.20;;
19679;SDS011;9989;48.962;9.182;2023-05-10T05:40:35;6.73;;;3.10;;
19679;SDS011;9989;48.962;9.182;2023-05-10T05:43:00;6.97;;;3.47;;
19679;SDS011;9989;48.962;9.182;2023-05-10T05:45:26;7.10;;;3.77;;
19679;SDS011;9989;48.962;9.182;2023-05-10T05:47:52;6.27;;;3.00;;
19679;SDS011;9989;48.962;9.182;2023-05-10T05:50:17;10.07;;;4.00;;
19679;SDS011;9989;48.962;9.182;2023-05-10T05:52:43;8.30;;;3.40;;
19679;SDS011;9989;48.962;9.182;2023-05-10T05:55:09;6.37;;;3.30;;
19679;SDS011;9989;48.962;9.182;2023-05-10T05:57:34;6.37;;;3.23;;
19679;SDS011;9989;48.962;9.182;2023-05-10T06:00:00;7.07;;;3.30;;
19679;SDS011;9989;48.962;9.182;2023-05-10T06:02:25;7.70;;;3.83;;
19679;SDS011;9989;48.962;9.182;2023-05-10T06:04:51;9.57;;;3.67;;
19679;SDS011;9989;48.962;9.182;2023-05-10T06:07:17;6.43;;;3.10;;
19679;SDS011;9989;48.962;9.182;2023-05-10T06:09:42;8.07;;;3.80;;
19679;SDS011;9989;48.962;9.182;2023-05-10T06:12:08;8.10;;;3.43;;
19679;SDS011;9989;48.962;9.182;2023-05-10T06:14:33;7.00;;;3.30;;
19679;SDS011;9989;48.962;9.182;2023-05-10T06:16:59;6.93;;;3.43;;
19679;SDS011;9989;48.962;9.182;2023-05-10T06:19:25;6.60;;;3.00;;
19679;SDS011;9989;48.962;9.182;2023-05-10T06:21:51;7.50;;;4.10;;
19679;SDS011;9989;48.962;9.182;2023-05-10T06:24:17;11.17;;;4.03;;
19679;SDS011;9989;48.962;9.182;2023-05-10T06:26:42;6.20;;;3.10;;
19679;SDS011;9989;48.962;9.182;2023-05-10T06:29:08;7.03;;;3.53;;
19679;SDS011;9989;48.962;9.182;2023-05-10T06:31:34;6.40;;;3.30;;
19679;SDS011;9989;48.962;9.182;2023-05-10T06:33:59;7.67;;;3.60;;
19679;SDS011;9989;48.962;9.182;2023-05-10T06:36:25;7.27;;;3.00;;
19679;SDS011;9989;48.962;9.182;2023-05-10T06:38:52;7.00;;;3.60;;
19679;SDS011;9989;48.962;9.182;2023-05-10T06:41:18;6.47;;;3.03;;
19679;SDS011;9989;48.962;9.182;2023-05-10T06:43:43;7.37;;;3.30;;
19679;SDS011;9989;48.962;9.182;2023-05-10T06:46:09;8.97;;;3.80;;
19679;SDS011;9989;48.962;9.182;2023-05-10T06:48:35;7.93;;;4.20;;
19679;SDS011;9989;48.962;9.182;2023-05-10T06:51:01;6.00;;;3.03;;
19679;SDS011;9989;48.962;9.182;2023-05-10T06:53:27;7.30;;;3.20;;
19679;SDS011;9989;48.962;9.182;2023-05-10T06:55:52;9.10;;;3.83;;
19679;SDS011;9989;48.962;9.182;2023-05-10T06:58:18;5.97;;;2.80;;
19679;SDS011;9989;48.962;9.182;2023-05-10T07:00:43;6.37;;;3.10;;
19679;SDS011;9989;48.962;9.182;2023-05-10T07:03:10;8.53;;;3.23;;
19679;SDS011;9989;48.962;9.182;2023-05-10T07:05:35;8.73;;;3.07;;
19679;SDS011;9989;48.962;9.182;2023-05-10T07:08:01;7.07;;;3.30;;
19679;SDS011;9989;48.962;9.182;2023-05-10T07:10:27;6.37;;;2.90;;
19679;SDS011;9989;48.962;9.182;2023-05-10T07:12:53;7.77;;;3.07;;
19679;SDS011;9989;48.962;9.182;2023-05-10T07:15:19;6.13;;;2.63;;
19679;SDS011;9989;48.962;9.182;2023-05-10T07:17:44;6.67;;;3.00;;
19679;SDS011;9989;48.962;9.182;2023-05-10T07:20:10;5.53;;;2.60;;
19679;SDS011;9989;48.962;9.182;2023-05-10T07:22:36;5.63;;;2.40;;
19679;SDS011;9989;48.962;9.182;2023-05-10T07:25:02;6.00;;;2.37;;
19679;SDS011;9989;48.962;9.182;2023-05-10T07:27:28;5.10;;;2.20;;
19679;SDS011;9989;48.962;9.182;2023-05-10T07:29:53;4.60;;;2.03;;
19679;SDS011;9989;48.962;9.182;2023-05-10T07:32:19;5.60;;;2.10;;
19679;SDS011;9989;48.962;9.182;2023-05-10T07:34:45;4.97;;;1.80;;
19679;SDS011;9989;48.962;9.182;2023-05-10T07:37:11;5.37;;;1.93;;
19679;SDS011;9989;48.962;9.182;2023-05-10T07:39:37;4.67;;;2.20;;
19679;SDS011;9989;48.962;9.182;2023-05-10T07:42:02;3.60;;;1.73;;
19679;SDS011;9989;48.962;9.182;2023-05-10T07:44:28;7.13;;;2.00;;
19679;SDS011;9989;48.962;9.182;2023-05-10T07:46:54;5.53;;;2.00;;
19679;SDS011;9989;48.962;9.182;2023-05-10T07:49:20;5.27;;;1.90;;
19679;SDS011;9989;48.962;9.182;2023-05-10T07:51:46;4.70;;;2.20;;
19679;SDS011;9989;48.962;9.182;2023-05-10T07:54:12;5.80;;;1.80;;
19679;SDS011;9989;48.962;9.182;2023-05-10T07:56:37;5.20;;;2.00;;
19679;SDS011;9989;48.962;9.182;2023-05-10T07:59:04;3.70;;;1.87;;
19679;SDS011;9989;48.962;9.182;2023-05-10T08:01:31;2.40;;;1.40;;
19679;SDS011;9989;48.962;9.182;2023-05-10T08:03:58;2.63;;;1.40;;
19679;SDS011;9989;48.962;9.182;2023-05-10T08:06:24;2.67;;;1.30;;
19679;SDS011;9989;48.962;9.182;2023-05-10T08:08:52;4.17;;;1.37;;
19679;SDS011;9989;48.962;9.182;2023-05-10T08:11:19;2.93;;;1.30;;
19679;SDS011;9989;48.962;9.182;2023-05-10T08:13:45;2.37;;;1.27;;
19679;SDS011;9989;48.962;9.182;2023-05-10T08:16:12;2.43;;;1.20;;
19679;SDS011;9989;48.962;9.182;2023-05-10T08:18:38;3.50;;;1.40;;
19679;SDS011;9989;48.962;9.182;2023-05-10T08:21:04;2.47;;;1.23;;
19679;SDS011;9989;48.962;9.182;2023-05-10T08:23:30;1.97;;;1.17;;
19679;SDS011;9989;48.962;9.182;2023-05-10T08:25:56;2.33;;;1.17;;
19679;SDS011;9989;48.962;9.182;2023-05-10T08:28:22;6.20;;;1.23;;
19679;SDS011;9989;48.962;9.182;2023-05-10T08:30:49;3.13;;;1.00;;
19679;SDS011;9989;48.962;9.182;2023-05-10T08:33:15;1.73;;;1.03;;
19679;SDS011;9989;48.962;9.182;2023-05-10T08:35:42;3.37;;;1.20;;
19679;SDS011;9989;48.962;9.182;2023-05-10T08:38:08;2.03;;;1.20;;
19679;SDS011;9989;48.962;9.182;2023-05-10T08:40:33;2.20;;;1.20;;
19679;SDS011;9989;48.962;9.182;2023-05-10T08:43:05;2.83;;;1.40;;
19679;SDS011;9989;48.962;9.182;2023-05-10T08:45:33;2.73;;;1.13;;
19679;SDS011;9989;48.962;9.182;2023-05-10T08:48:02;2.03;;;1.00;;
19679;SDS011;9989;48.962;9.182;2023-05-10T08:50:29;1.87;;;1.20;;
19679;SDS011;9989;48.962;9.182;2023-05-10T08:52:57;4.97;;;1.30;;
19679;SDS011;9989;48.962;9.182;2023-05-10T08:55:29;2.03;;;0.93;;
19679;SDS011;9989;48.962;9.182;2023-05-10T08:57:55;2.13;;;1.00;;
19679;SDS011;9989;48.962;9.182;2023-05-10T09:00:21;2.37;;;1.00;;
19679;SDS011;9989;48.962;9.182;2023-05-10T09:02:48;2.60;;;1.00;;
19679;SDS011;9989;48.962;9.182;2023-05-10T09:05:15;1.27;;;0.97;;
19679;SDS011;9989;48.962;9.182;2023-05-10T09:07:42;2.40;;;0.97;;
19679;SDS011;9989;48.962;9.182;2023-05-10T09:10:08;2.33;;;1.00;;
19679;SDS011;9989;48.962;9.182;2023-05-10T09:12:35;1.33;;;1.00;;
19679;SDS011;9989;48.962;9.182;2023-05-10T09:15:01;1.67;;;0.93;;
19679;SDS011;9989;48.962;9.182;2023-05-10T09:17:28;1.87;;;1.10;;
19679;SDS011;9989;48.962;9.182;2023-05-10T09:20:01;2.47;;;1.10;;
19679;SDS011;9989;48.962;9.182;2023-05-10T09:22:29;4.57;;;1.17;;
19679;SDS011;9989;48.962;9.182;2023-05-10T09:25:14;2.67;;;0.90;;
19679;SDS011;9989;48.962;9.182;2023-05-10T09:27:41;2.10;;;1.07;;
19679;SDS011;9989;48.962;9.182;2023-05-10T09:30:10;5.10;;;1.33;;
19679;SDS011;9989;48.962;9.182;2023-05-10T09:32:41;4.03;;;1.13;;
19679;SDS011;9989;48.962;9.182;2023-05-10T09:35:09;1.40;;;0.90;;
19679;SDS011;9989;48.962;9.182;2023-05-10T09:37:36;2.90;;;1.00;;
19679;SDS011;9989;48.962;9.182;2023-05-10T09:40:05;1.90;;;1.10;;
19679;SDS011;9989;48.962;9.182;2023-05-10T09:42:32;2.20;;;1.20;;
19679;SDS011;9989;48.962;9.182;2023-05-10T09:45:05;1.47;;;0.83;;
19679;SDS011;9989;48.962;9.182;2023-05-10T09:47:35;2.47;;;1.30;;
19679;SDS011;9989;48.962;9.182;2023-05-10T09:50:01;1.73;;;1.00;;
19679;SDS011;9989;48.962;9.182;2023-05-10T09:52:45;3.23;;;1.23;;
19679;SDS011;9989;48.962;9.182;2023-05-10T09:55:20;2.30;;;1.10;;
19679;SDS011;9989;48.962;9.182;2023-05-10T09:57:48;1.57;;;1.07;;
19679;SDS011;9989;48.962;9.182;2023-05-10T10:00:18;2.23;;;1.20;;
19679;SDS011;9989;48.962;9.182;2023-05-10T10:02:48;2.43;;;1.20;;
19679;SDS011;9989;48.962;9.182;2023-05-10T10:05:33;1.47;;;0.87;;
19679;SDS011;9989;48.962;9.182;2023-05-10T10:08:02;1.93;;;0.80;;
19679;SDS011;9989;48.962;9.182;2023-05-10T10:10:29;1.53;;;1.00;;
19679;SDS011;9989;48.962;9.182;2023-05-10T10:12:56;2.53;;;1.37;;
19679;SDS011;9989;48.962;9.182;2023-05-10T10:15:22;0.80;;;0.77;;
19679;SDS011;9989;48.962;9.182;2023-05-10T10:17:50;3.27;;;1.40;;
19679;SDS011;9989;48.962;9.182;2023-05-10T10:20:17;4.57;;;0.87;;
19679;SDS011;9989;48.962;9.182;2023-05-10T10:22:43;6.07;;;1.00;;
19679;SDS011;9989;48.962;9.182;2023-05-10T10:25:12;1.77;;;0.93;;
19679;SDS011;9989;48.962;9.182;2023-05-10T10:27:56;1.70;;;1.03;;
19679;SDS011;9989;48.962;9.182;2023-05-10T10:35:28;3.33;;;1.13;;
19679;SDS011;9989;48.962;9.182;2023-05-10T10:37:55;1.93;;;1.03;;
19679;SDS011;9989;48.962;9.182;2023-05-10T10:40:25;1.23;;;0.97;;
19679;SDS011;9989;48.962;9.182;2023-05-10T10:42:51;2.10;;;1.10;;
19679;SDS011;9989;48.962;9.182;2023-05-10T10:45:18;1.63;;;1.00;;
19679;SDS011;9989;48.962;9.182;2023-05-10T10:47:44;1.53;;;0.93;;
19679;SDS011;9989;48.962;9.182;2023-05-10T10:50:10;3.90;;;1.40;;
19679;SDS011;9989;48.962;9.182;2023-05-10T10:52:45;2.30;;;1.13;;
19679;SDS011;9989;48.962;9.182;2023-05-10T10:55:20;5.17;;;1.23;;
19679;SDS011;9989;48.962;9.182;2023-05-10T10:57:55;2.40;;;0.80;;
19679;SDS011;9989;48.962;9.182;2023-05-10T11:00:29;1.73;;;0.90;;
19679;SDS011;9989;48.962;9.182;2023-05-10T11:03:07;3.30;;;1.00;;
19679;SDS011;9989;48.962;9.182;2023-05-10T11:05:43;2.60;;;0.97;;
19679;SDS011;9989;48.962;9.182;2023-05-10T11:10:49;6.00;;;1.63;;
19679;SDS011;9989;48.962;9.182;2023-05-10T11:16:10;1.37;;;0.73;;
19679;SDS011;9989;48.962;9.182;2023-05-10T11:18:52;2.73;;;0.90;;
19679;SDS011;9989;48.962;9.182;2023-05-10T11:21:29;1.63;;;1.10;;
19679;SDS011;9989;48.962;9.182;2023-05-10T11:23:56;2.37;;;1.17;;
19679;SDS011;9989;48.962;9.182;2023-05-10T11:26:23;3.30;;;1.37;;
19679;SDS011;9989;48.962;9.182;2023-05-10T11:28:51;2.87;;;1.27;;
19679;SDS011;9989;48.962;9.182;2023-05-10T11:31:22;2.40;;;1.10;;
19679;SDS011;9989;48.962;9.182;2023-05-10T11:33:51;2.57;;;1.23;;
19679;SDS011;9989;48.962;9.182;2023-05-10T11:36:19;2.43;;;1.00;;
19679;SDS011;9989;48.962;9.182;2023-05-10T11:38:47;3.20;;;1.10;;
19679;SDS011;9989;48.962;9.182;2023-05-10T11:41:15;5.13;;;1.60;;
19679;SDS011;9989;48.962;9.182;2023-05-10T11:43:42;1.67;;;1.00;;
19679;SDS011;9989;48.962;9.182;2023-05-10T11:46:11;3.00;;;1.00;;
19679;SDS011;9989;48.962;9.182;2023-05-10T11:48:40;1.53;;;0.90;;
19679;SDS011;9989;48.962;9.182;2023-05-10T11:51:07;2.63;;;1.03;;
19679;SDS011;9989;48.962;9.182;2023-05-10T11:53:34;3.40;;;1.20;;
19679;SDS011;9989;48.962;9.182;2023-05-10T11:56:03;3.53;;;1.33;;
19679;SDS011;9989;48.962;9.182;2023-05-10T11:58:30;4.43;;;1.70;;
19679;SDS011;9989;48.962;9.182;2023-05-10T12:00:58;5.70;;;1.40;;
19679;SDS011;9989;48.962;9.182;2023-05-10T12:03:24;5.47;;;1.80;;
19679;SDS011;9989;48.962;9.182;2023-05-10T12:05:50;6.27;;;1.90;;
19679;SDS011;9989;48.962;9.182;2023-05-10T12:08:20;3.43;;;1.50;;
19679;SDS011;9989;48.962;9.182;2023-05-10T12:10:47;3.77;;;1.70;;
19679;SDS011;9989;48.962;9.182;2023-05-10T12:13:13;5.23;;;2.00;;
19679;SDS011;9989;48.962;9.182;2023-05-10T12:15:40;8.37;;;2.17;;
19679;SDS011;9989;48.962;9.182;2023-05-10T12:18:10;5.13;;;1.70;;
19679;SDS011;9989;48.962;9.182;2023-05-10T12:20:40;3.83;;;1.67;;
19679;SDS011;9989;48.962;9.182;2023-05-10T12:23:08;5.23;;;1.80;;
19679;SDS011;9989;48.962;9.182;2023-05-10T12:25:35;4.50;;;1.90;;
19679;SDS011;9989;48.962;9.182;2023-05-10T12:28:05;4.07;;;1.80;;
19679;SDS011;9989;48.962;9.182;2023-05-10T12:30:33;4.33;;;2.03;;
19679;SDS011;9989;48.962;9.182;2023-05-10T12:33:01;4.63;;;1.80;;
19679;SDS011;9989;48.962;9.182;2023-05-10T12:35:31;6.87;;;2.03;;
19679;SDS011;9989;48.962;9.182;2023-05-10T12:37:57;5.90;;;1.90;;
19679;SDS011;9989;48.962;9.182;2023-05-10T12:40:23;6.07;;;1.80;;
19679;SDS011;9989;48.962;9.182;2023-05-10T12:42:49;6.23;;;1.37;;
19679;SDS011;9989;48.962;9.182;2023-05-10T12:45:15;2.70;;;1.20;;
19679;SDS011;9989;48.962;9.182;2023-05-10T12:47:42;4.17;;;1.50;;
19679;SDS011;9989;48.962;9.182;2023-05-10T12:50:08;5.03;;;1.73;;
19679;SDS011;9989;48.962;9.182;2023-05-10T12:52:34;5.23;;;1.40;;
19679;SDS011;9989;48.962;9.182;2023-05-10T12:55:00;4.33;;;1.50;;
19679;SDS011;9989;48.962;9.182;2023-05-10T12:57:26;2.97;;;1.40;;
19679;SDS011;9989;48.962;9.182;2023-05-10T12:59:54;1.70;;;1.00;;
19679;SDS011;9989;48.962;9.182;2023-05-10T13:02:20;3.50;;;1.40;;
19679;SDS011;9989;48.962;9.182;2023-05-10T13:04:47;3.47;;;1.70;;
19679;SDS011;9989;48.962;9.182;2023-05-10T13:07:13;2.17;;;1.10;;
19679;SDS011;9989;48.962;9.182;2023-05-10T13:09:39;3.00;;;1.20;;
19679;SDS011;9989;48.962;9.182;2023-05-10T13:12:05;2.80;;;1.30;;
19679;SDS011;9989;48.962;9.182;2023-05-10T13:14:31;5.47;;;1.40;;
19679;SDS011;9989;48.962;9.182;2023-05-10T13:16:56;3.33;;;1.40;;
19679;SDS011;9989;48.962;9.182;2023-05-10T13:19:22;5.03;;;1.40;;
19679;SDS011;9989;48.962;9.182;2023-05-10T13:21:48;4.93;;;1.57;;
19679;SDS011;9989;48.962;9.182;2023-05-10T13:24:13;6.90;;;1.40;;
19679;SDS011;9989;48.962;9.182;2023-05-10T13:26:39;2.70;;;1.30;;
19679;SDS011;9989;48.962;9.182;2023-05-10T13:29:05;1.90;;;1.10;;
19679;SDS011;9989;48.962;9.182;2023-05-10T13:31:32;4.93;;;1.30;;
19679;SDS011;9989;48.962;9.182;2023-05-10T13:33:58;2.20;;;1.10;;
19679;SDS011;9989;48.962;9.182;2023-05-10T13:36:23;2.97;;;1.33;;
19679;SDS011;9989;48.962;9.182;2023-05-10T13:38:49;3.00;;;1.10;;
19679;SDS011;9989;48.962;9.182;2023-05-10T13:41:15;4.47;;;1.50;;
19679;SDS011;9989;48.962;9.182;2023-05-10T13:43:40;2.73;;;1.20;;
19679;SDS011;9989;48.962;9.182;2023-05-10T13:46:06;2.73;;;1.30;;
19679;SDS011;9989;48.962;9.182;2023-05-10T13:48:32;3.57;;;1.30;;
19679;SDS011;9989;48.962;9.182;2023-05-10T13:50:57;3.77;;;1.27;;
19679;SDS011;9989;48.962;9.182;2023-05-10T13:53:23;3.03;;;1.40;;
19679;SDS011;9989;48.962;9.182;2023-05-10T13:55:48;4.33;;;1.60;;
19679;SDS011;9989;48.962;9.182;2023-05-10T13:58:14;3.00;;;1.43;;
19679;SDS011;9989;48.962;9.182;2023-05-10T14:00:40;2.77;;;1.30;;
19679;SDS011;9989;48.962;9.182;2023-05-10T14:03:05;4.00;;;1.33;;
19679;SDS011;9989;48.962;9.182;2023-05-10T14:05:32;3.10;;;1.40;;
19679;SDS011;9989;48.962;9.182;2023-05-10T14:07:58;5.97;;;1.53;;
19679;SDS011;9989;48.962;9.182;2023-05-10T14:10:23;7.13;;;1.40;;
19679;SDS011;9989;48.962;9.182;2023-05-10T14:12:49;3.10;;;1.70;;
19679;SDS011;9989;48.962;9.182;2023-05-10T14:15:15;3.57;;;1.67;;
19679;SDS011;9989;48.962;9.182;2023-05-10T14:17:41;3.17;;;1.60;;
19679;SDS011;9989;48.962;9.182;2023-05-10T14:20:07;3.63;;;1.37;;
19679;SDS011;9989;48.962;9.182;2023-05-10T14:22:33;1.90;;;1.13;;
19679;SDS011;9989;48.962;9.182;2023-05-10T14:24:59;4.30;;;1.23;;
19679;SDS011;9989;48.962;9.182;2023-05-10T14:27:25;4.17;;;1.40;;
19679;SDS011;9989;48.962;9.182;2023-05-10T14:29:51;4.47;;;1.57;;
19679;SDS011;9989;48.962;9.182;2023-05-10T14:32:18;4.00;;;1.43;;
19679;SDS011;9989;48.962;9.182;2023-05-10T14:34:43;1.63;;;1.00;;
19679;SDS011;9989;48.962;9.182;2023-05-10T14:37:10;6.33;;;1.93;;
19679;SDS011;9989;48.962;9.182;2023-05-10T14:39:36;4.70;;;1.73;;
19679;SDS011;9989;48.962;9.182;2023-05-10T14:42:02;6.07;;;1.73;;
19679;SDS011;9989;48.962;9.182;2023-05-10T14:44:28;3.77;;;1.30;;
19679;SDS011;9989;48.962;9.182;2023-05-10T14:46:54;2.40;;;1.27;;
19679;SDS011;9989;48.962;9.182;2023-05-10T14:49:21;3.53;;;1.33;;
19679;SDS011;9989;48.962;9.182;2023-05-10T14:51:47;2.90;;;1.30;;
19679;SDS011;9989;48.962;9.182;2023-05-10T14:54:13;4.20;;;1.43;;
19679;SDS011;9989;48.962;9.182;2023-05-10T14:56:39;2.60;;;1.20;;
19679;SDS011;9989;48.962;9.182;2023-05-10T14:59:06;5.70;;;1.20;;
19679;SDS011;9989;48.962;9.182;2023-05-10T15:01:32;5.33;;;1.43;;
19679;SDS011;9989;48.962;9.182;2023-05-10T15:04:00;2.60;;;1.10;;
19679;SDS011;9989;48.962;9.182;2023-05-10T15:06:32;4.43;;;1.50;;
19679;SDS011;9989;48.962;9.182;2023-05-10T15:08:58;2.73;;;1.20;;
19679;SDS011;9989;48.962;9.182;2023-05-10T15:11:24;3.40;;;1.20;;
19679;SDS011;9989;48.962;9.182;2023-05-10T15:13:50;2.60;;;1.27;;
19679;SDS011;9989;48.962;9.182;2023-05-10T15:16:16;2.67;;;1.20;;
19679;SDS011;9989;48.962;9.182;2023-05-10T15:18:42;2.53;;;1.10;;
19679;SDS011;9989;48.962;9.182;2023-05-10T15:21:07;3.23;;;1.10;;
19679;SDS011;9989;48.962;9.182;2023-05-10T15:23:33;2.70;;;1.20;;
19679;SDS011;9989;48.962;9.182;2023-05-10T15:26:00;6.97;;;1.43;;
19679;SDS011;9989;48.962;9.182;2023-05-10T15:28:25;1.90;;;1.10;;
19679;SDS011;9989;48.962;9.182;2023-05-10T15:30:51;2.83;;;1.30;;
19679;SDS011;9989;48.962;9.182;2023-05-10T15:33:17;2.50;;;1.30;;
19679;SDS011;9989;48.962;9.182;2023-05-10T15:35:42;3.17;;;1.33;;